sensor_id;sensor_type;location;lat;lon;timestamp;P1;durP1;ratioP1;P2;durP2;ratioP2
6517;SDS011;3292;48.944;9.240;2022-12-07T00:02:02;10.23;;;9.10;;
6517;SDS011;3292;48.944;9.240;2022-12-07T00:04:30;11.53;;;9.43;;
6517;SDS011;3292;48.944;9.240;2022-12-07T00:06:57;12.70;;;9.30;;
6517;SDS011;3292;48.944;9.240;2022-12-07T00:09:24;9.63;;;8.53;;
6517;SDS011;3292;48.944;9.240;2022-12-07T00:11:51;10.23;;;8.90;;
6517;SDS011;3292;48.944;9.240;2022-12-07T00:14:18;11.23;;;8.93;;
6517;SDS011;3292;48.944;9.240;2022-12-07T00:16:45;10.07;;;8.70;;
6517;SDS011;3292;48.944;9.240;2022-12-07T00:19:17;10.13;;;9.13;;
6517;SDS011;3292;48.944;9.240;2022-12-07T00:21:52;10.47;;;8.87;;
6517;SDS011;3292;48.944;9.240;2022-12-07T00:24:22;9.93;;;8.77;;
6517;SDS011;3292;48.944;9.240;2022-12-07T00:26:51;9.90;;;8.83;;
6517;SDS011;3292;48.944;9.240;2022-12-07T00:29:19;10.77;;;8.73;;
6517;SDS011;3292;48.944;9.240;2022-12-07T00:31:46;12.10;;;9.77;;
6517;SDS011;3292;48.944;9.240;2022-12-07T00:34:15;12.93;;;10.43;;
6517;SDS011;3292;48.944;9.240;2022-12-07T00:36:44;9.80;;;8.73;;
6517;SDS011;3292;48.944;9.240;2022-12-07T00:39:12;9.90;;;8.53;;
6517;SDS011;3292;48.944;9.240;2022-12-07T00:41:39;11.37;;;9.70;;
6517;SDS011;3292;48.944;9.240;2022-12-07T00:44:06;12.13;;;8.73;;
6517;SDS011;3292;48.944;9.240;2022-12-07T00:46:33;10.33;;;9.23;;
6517;SDS011;3292;48.944;9.240;2022-12-07T00:49:00;10.53;;;9.43;;
6517;SDS011;3292;48.944;9.240;2022-12-07T00:51:27;10.40;;;9.30;;
6517;SDS011;3292;48.944;9.240;2022-12-07T00:53:54;10.57;;;9.47;;
6517;SDS011;3292;48.944;9.240;2022-12-07T00:56:23;10.47;;;9.27;;
6517;SDS011;3292;48.944;9.240;2022-12-07T00:58:51;10.50;;;9.07;;
6517;SDS011;3292;48.944;9.240;2022-12-07T01:01:20;11.43;;;10.07;;
6517;SDS011;3292;48.944;9.240;2022-12-07T01:03:48;10.13;;;9.13;;
6517;SDS011;3292;48.944;9.240;2022-12-07T01:06:15;10.07;;;8.90;;
6517;SDS011;3292;48.944;9.240;2022-12-07T01:08:43;11.27;;;9.10;;
6517;SDS011;3292;48.944;9.240;2022-12-07T01:11:12;11.53;;;9.67;;
6517;SDS011;3292;48.944;9.240;2022-12-07T01:13:42;9.70;;;8.73;;
6517;SDS011;3292;48.944;9.240;2022-12-07T01:16:10;11.17;;;8.60;;
6517;SDS011;3292;48.944;9.240;2022-12-07T01:18:38;10.87;;;8.53;;
6517;SDS011;3292;48.944;9.240;2022-12-07T01:21:06;10.43;;;8.60;;
6517;SDS011;3292;48.944;9.240;2022-12-07T01:23:35;10.47;;;9.10;;
6517;SDS011;3292;48.944;9.240;2022-12-07T01:26:03;11.63;;;9.87;;
6517;SDS011;3292;48.944;9.240;2022-12-07T01:28:32;10.23;;;9.17;;
6517;SDS011;3292;48.944;9.240;2022-12-07T01:31:01;11.63;;;10.07;;
6517;SDS011;3292;48.944;9.240;2022-12-07T01:33:30;12.53;;;9.60;;
6517;SDS011;3292;48.944;9.240;2022-12-07T01:36:02;12.50;;;10.23;;
6517;SDS011;3292;48.944;9.240;2022-12-07T01:38:29;11.23;;;10.10;;
6517;SDS011;3292;48.944;9.240;2022-12-07T01:40:56;10.90;;;9.80;;
6517;SDS011;3292;48.944;9.240;2022-12-07T01:43:24;13.27;;;10.00;;
6517;SDS011;3292;48.944;9.240;2022-12-07T01:45:53;13.17;;;10.97;;
6517;SDS011;3292;48.944;9.240;2022-12-07T01:48:22;11.87;;;10.20;;
6517;SDS011;3292;48.944;9.240;2022-12-07T01:50:53;12.33;;;10.50;;
6517;SDS011;3292;48.944;9.240;2022-12-07T01:53:26;10.93;;;9.83;;
6517;SDS011;3292;48.944;9.240;2022-12-07T01:55:55;12.07;;;10.13;;
6517;SDS011;3292;48.944;9.240;2022-12-07T01:58:24;13.40;;;10.50;;
6517;SDS011;3292;48.944;9.240;2022-12-07T02:00:51;13.30;;;10.50;;
6517;SDS011;3292;48.944;9.240;2022-12-07T02:03:19;11.70;;;10.20;;
6517;SDS011;3292;48.944;9.240;2022-12-07T02:05:53;12.73;;;11.07;;
6517;SDS011;3292;48.944;9.240;2022-12-07T02:08:21;12.00;;;10.67;;
6517;SDS011;3292;48.944;9.240;2022-12-07T02:10:48;12.93;;;10.63;;
6517;SDS011;3292;48.944;9.240;2022-12-07T02:13:15;12.00;;;10.23;;
6517;SDS011;3292;48.944;9.240;2022-12-07T02:15:47;11.17;;;9.97;;
6517;SDS011;3292;48.944;9.240;2022-12-07T02:18:28;10.90;;;9.47;;
6517;SDS011;3292;48.944;9.240;2022-12-07T02:21:07;12.67;;;9.63;;
6517;SDS011;3292;48.944;9.240;2022-12-07T02:23:40;11.53;;;10.33;;
6517;SDS011;3292;48.944;9.240;2022-12-07T02:26:23;11.53;;;9.63;;
6517;SDS011;3292;48.944;9.240;2022-12-07T02:29:11;11.60;;;10.40;;
6517;SDS011;3292;48.944;9.240;2022-12-07T02:31:45;12.70;;;10.50;;
6517;SDS011;3292;48.944;9.240;2022-12-07T02:34:19;14.23;;;10.97;;
6517;SDS011;3292;48.944;9.240;2022-12-07T02:36:52;11.90;;;10.67;;
6517;SDS011;3292;48.944;9.240;2022-12-07T02:39:26;12.17;;;10.07;;
6517;SDS011;3292;48.944;9.240;2022-12-07T02:42:00;12.83;;;11.10;;
6517;SDS011;3292;48.944;9.240;2022-12-07T02:44:33;13.73;;;10.50;;
6517;SDS011;3292;48.944;9.240;2022-12-07T02:47:01;12.07;;;10.53;;
6517;SDS011;3292;48.944;9.240;2022-12-07T02:49:31;11.80;;;9.43;;
6517;SDS011;3292;48.944;9.240;2022-12-07T02:51:58;14.30;;;10.43;;
6517;SDS011;3292;48.944;9.240;2022-12-07T02:54:25;11.37;;;10.17;;
6517;SDS011;3292;48.944;9.240;2022-12-07T02:56:52;12.37;;;10.50;;
6517;SDS011;3292;48.944;9.240;2022-12-07T02:59:25;12.80;;;10.77;;
6517;SDS011;3292;48.944;9.240;2022-12-07T03:02:06;12.30;;;10.30;;
6517;SDS011;3292;48.944;9.240;2022-12-07T03:04:43;12.33;;;10.47;;
6517;SDS011;3292;48.944;9.240;2022-12-07T03:07:18;12.23;;;10.20;;
6517;SDS011;3292;48.944;9.240;2022-12-07T03:09:51;13.70;;;10.87;;
6517;SDS011;3292;48.944;9.240;2022-12-07T03:12:27;11.20;;;9.87;;
6517;SDS011;3292;48.944;9.240;2022-12-07T03:15:00;12.50;;;9.93;;
6517;SDS011;3292;48.944;9.240;2022-12-07T03:17:31;12.97;;;10.33;;
6517;SDS011;3292;48.944;9.240;2022-12-07T03:20:02;12.47;;;10.20;;
6517;SDS011;3292;48.944;9.240;2022-12-07T03:22:33;12.00;;;9.90;;
6517;SDS011;3292;48.944;9.240;2022-12-07T03:25:05;12.80;;;10.10;;
6517;SDS011;3292;48.944;9.240;2022-12-07T03:27:35;10.73;;;9.00;;
6517;SDS011;3292;48.944;9.240;2022-12-07T03:30:07;13.67;;;10.53;;
6517;SDS011;3292;48.944;9.240;2022-12-07T03:32:39;11.93;;;10.27;;
6517;SDS011;3292;48.944;9.240;2022-12-07T03:35:11;11.60;;;10.37;;
6517;SDS011;3292;48.944;9.240;2022-12-07T03:37:42;12.73;;;10.13;;
6517;SDS011;3292;48.944;9.240;2022-12-07T03:40:15;10.60;;;9.50;;
6517;SDS011;3292;48.944;9.240;2022-12-07T03:42:45;11.60;;;10.13;;
6517;SDS011;3292;48.944;9.240;2022-12-07T03:45:13;12.37;;;10.13;;
6517;SDS011;3292;48.944;9.240;2022-12-07T03:47:45;12.47;;;10.57;;
6517;SDS011;3292;48.944;9.240;2022-12-07T03:50:18;11.77;;;9.33;;
6517;SDS011;3292;48.944;9.240;2022-12-07T03:52:52;11.20;;;10.07;;
6517;SDS011;3292;48.944;9.240;2022-12-07T03:55:22;11.73;;;10.43;;
6517;SDS011;3292;48.944;9.240;2022-12-07T03:57:55;12.10;;;10.70;;
6517;SDS011;3292;48.944;9.240;2022-12-07T04:00:24;12.23;;;10.20;;
6517;SDS011;3292;48.944;9.240;2022-12-07T04:02:53;14.93;;;10.87;;
6517;SDS011;3292;48.944;9.240;2022-12-07T04:05:21;11.30;;;10.10;;
6517;SDS011;3292;48.944;9.240;2022-12-07T04:07:48;12.27;;;10.30;;
6517;SDS011;3292;48.944;9.240;2022-12-07T04:10:15;13.47;;;10.63;;
6517;SDS011;3292;48.944;9.240;2022-12-07T04:12:42;15.30;;;12.23;;
6517;SDS011;3292;48.944;9.240;2022-12-07T04:15:09;13.60;;;10.93;;
6517;SDS011;3292;48.944;9.240;2022-12-07T04:17:36;13.30;;;11.07;;
6517;SDS011;3292;48.944;9.240;2022-12-07T04:20:05;14.47;;;11.67;;
6517;SDS011;3292;48.944;9.240;2022-12-07T04:22:33;13.43;;;11.07;;
6517;SDS011;3292;48.944;9.240;2022-12-07T04:25:00;11.20;;;10.03;;
6517;SDS011;3292;48.944;9.240;2022-12-07T04:27:26;13.03;;;10.03;;
6517;SDS011;3292;48.944;9.240;2022-12-07T04:29:53;13.20;;;11.33;;
6517;SDS011;3292;48.944;9.240;2022-12-07T04:32:21;12.73;;;10.73;;
6517;SDS011;3292;48.944;9.240;2022-12-07T04:34:48;14.87;;;11.60;;
6517;SDS011;3292;48.944;9.240;2022-12-07T04:37:16;13.30;;;11.30;;
6517;SDS011;3292;48.944;9.240;2022-12-07T04:39:43;14.73;;;11.50;;
6517;SDS011;3292;48.944;9.240;2022-12-07T04:42:10;11.73;;;10.47;;
6517;SDS011;3292;48.944;9.240;2022-12-07T04:44:38;12.93;;;11.10;;
6517;SDS011;3292;48.944;9.240;2022-12-07T04:47:05;12.70;;;11.23;;
6517;SDS011;3292;48.944;9.240;2022-12-07T04:49:32;14.37;;;10.67;;
6517;SDS011;3292;48.944;9.240;2022-12-07T04:51:59;13.20;;;10.60;;
6517;SDS011;3292;48.944;9.240;2022-12-07T04:54:27;12.03;;;9.87;;
6517;SDS011;3292;48.944;9.240;2022-12-07T04:56:54;12.57;;;11.07;;
6517;SDS011;3292;48.944;9.240;2022-12-07T04:59:21;12.33;;;10.80;;
6517;SDS011;3292;48.944;9.240;2022-12-07T05:01:48;13.63;;;12.23;;
6517;SDS011;3292;48.944;9.240;2022-12-07T05:04:14;16.67;;;13.03;;
6517;SDS011;3292;48.944;9.240;2022-12-07T05:06:42;14.23;;;12.70;;
6517;SDS011;3292;48.944;9.240;2022-12-07T05:09:09;13.30;;;11.80;;
6517;SDS011;3292;48.944;9.240;2022-12-07T05:11:39;16.97;;;11.83;;
6517;SDS011;3292;48.944;9.240;2022-12-07T05:14:06;13.07;;;11.10;;
6517;SDS011;3292;48.944;9.240;2022-12-07T05:16:36;12.50;;;11.00;;
6517;SDS011;3292;48.944;9.240;2022-12-07T05:19:03;16.17;;;11.30;;
6517;SDS011;3292;48.944;9.240;2022-12-07T05:21:31;13.73;;;11.23;;
6517;SDS011;3292;48.944;9.240;2022-12-07T05:23:58;14.30;;;11.30;;
6517;SDS011;3292;48.944;9.240;2022-12-07T05:26:25;12.97;;;11.43;;
6517;SDS011;3292;48.944;9.240;2022-12-07T05:28:53;13.50;;;11.10;;
6517;SDS011;3292;48.944;9.240;2022-12-07T05:31:21;13.20;;;11.40;;
6517;SDS011;3292;48.944;9.240;2022-12-07T05:33:49;13.23;;;11.03;;
6517;SDS011;3292;48.944;9.240;2022-12-07T05:36:16;14.10;;;11.90;;
6517;SDS011;3292;48.944;9.240;2022-12-07T05:38:43;14.93;;;11.40;;
6517;SDS011;3292;48.944;9.240;2022-12-07T05:41:11;13.17;;;11.53;;
6517;SDS011;3292;48.944;9.240;2022-12-07T05:43:55;13.80;;;10.90;;
6517;SDS011;3292;48.944;9.240;2022-12-07T05:46:22;14.00;;;11.20;;
6517;SDS011;3292;48.944;9.240;2022-12-07T05:48:49;12.60;;;11.30;;
6517;SDS011;3292;48.944;9.240;2022-12-07T05:51:16;13.43;;;11.27;;
6517;SDS011;3292;48.944;9.240;2022-12-07T05:53:43;15.60;;;12.03;;
6517;SDS011;3292;48.944;9.240;2022-12-07T05:56:10;15.17;;;12.33;;
6517;SDS011;3292;48.944;9.240;2022-12-07T05:58:37;14.07;;;12.50;;
6517;SDS011;3292;48.944;9.240;2022-12-07T06:01:37;14.83;;;12.17;;
6517;SDS011;3292;48.944;9.240;2022-12-07T06:04:06;14.73;;;12.10;;
6517;SDS011;3292;48.944;9.240;2022-12-07T06:06:33;16.20;;;11.90;;
6517;SDS011;3292;48.944;9.240;2022-12-07T06:09:00;15.20;;;11.80;;
6517;SDS011;3292;48.944;9.240;2022-12-07T06:11:27;13.43;;;10.97;;
6517;SDS011;3292;48.944;9.240;2022-12-07T06:14:11;15.80;;;12.20;;
6517;SDS011;3292;48.944;9.240;2022-12-07T06:16:40;13.70;;;10.57;;
6517;SDS011;3292;48.944;9.240;2022-12-07T06:19:06;12.93;;;10.53;;
6517;SDS011;3292;48.944;9.240;2022-12-07T06:21:35;14.40;;;11.33;;
6517;SDS011;3292;48.944;9.240;2022-12-07T06:24:06;13.37;;;11.43;;
6517;SDS011;3292;48.944;9.240;2022-12-07T06:26:41;15.40;;;12.00;;
6517;SDS011;3292;48.944;9.240;2022-12-07T06:29:16;15.23;;;11.27;;
6517;SDS011;3292;48.944;9.240;2022-12-07T06:31:53;15.77;;;12.23;;
6517;SDS011;3292;48.944;9.240;2022-12-07T06:34:24;17.80;;;12.23;;
6517;SDS011;3292;48.944;9.240;2022-12-07T06:37:02;17.93;;;12.33;;
6517;SDS011;3292;48.944;9.240;2022-12-07T06:39:39;14.50;;;11.77;;
6517;SDS011;3292;48.944;9.240;2022-12-07T06:42:11;14.97;;;11.77;;
6517;SDS011;3292;48.944;9.240;2022-12-07T06:44:43;16.93;;;12.13;;
6517;SDS011;3292;48.944;9.240;2022-12-07T06:47:14;16.33;;;11.87;;
6517;SDS011;3292;48.944;9.240;2022-12-07T06:49:46;15.30;;;11.50;;
6517;SDS011;3292;48.944;9.240;2022-12-07T06:52:16;14.83;;;11.07;;
6517;SDS011;3292;48.944;9.240;2022-12-07T06:54:46;14.50;;;11.97;;
6517;SDS011;3292;48.944;9.240;2022-12-07T06:57:16;13.83;;;11.67;;
6517;SDS011;3292;48.944;9.240;2022-12-07T06:59:49;15.30;;;10.67;;
6517;SDS011;3292;48.944;9.240;2022-12-07T07:02:20;14.07;;;10.90;;
6517;SDS011;3292;48.944;9.240;2022-12-07T07:04:51;14.60;;;11.63;;
6517;SDS011;3292;48.944;9.240;2022-12-07T07:07:23;13.90;;;10.73;;
6517;SDS011;3292;48.944;9.240;2022-12-07T07:09:52;13.97;;;10.70;;
6517;SDS011;3292;48.944;9.240;2022-12-07T07:12:22;13.20;;;11.43;;
6517;SDS011;3292;48.944;9.240;2022-12-07T07:14:54;15.57;;;11.30;;
6517;SDS011;3292;48.944;9.240;2022-12-07T07:17:28;13.87;;;11.00;;
6517;SDS011;3292;48.944;9.240;2022-12-07T07:19:59;12.63;;;10.53;;
6517;SDS011;3292;48.944;9.240;2022-12-07T07:22:28;15.50;;;11.70;;
6517;SDS011;3292;48.944;9.240;2022-12-07T07:24:57;12.60;;;10.37;;
6517;SDS011;3292;48.944;9.240;2022-12-07T07:27:26;13.60;;;10.60;;
6517;SDS011;3292;48.944;9.240;2022-12-07T07:29:55;15.00;;;11.00;;
6517;SDS011;3292;48.944;9.240;2022-12-07T07:32:25;14.20;;;9.83;;
6517;SDS011;3292;48.944;9.240;2022-12-07T07:34:57;12.17;;;9.97;;
6517;SDS011;3292;48.944;9.240;2022-12-07T07:37:28;14.13;;;9.87;;
6517;SDS011;3292;48.944;9.240;2022-12-07T07:39:58;13.40;;;10.43;;
6517;SDS011;3292;48.944;9.240;2022-12-07T07:42:28;12.93;;;10.40;;
6517;SDS011;3292;48.944;9.240;2022-12-07T07:44:59;13.83;;;10.00;;
6517;SDS011;3292;48.944;9.240;2022-12-07T07:47:30;11.30;;;10.10;;
6517;SDS011;3292;48.944;9.240;2022-12-07T07:49:57;13.10;;;10.53;;
6517;SDS011;3292;48.944;9.240;2022-12-07T07:52:24;11.43;;;9.70;;
6517;SDS011;3292;48.944;9.240;2022-12-07T07:54:52;12.07;;;9.53;;
6517;SDS011;3292;48.944;9.240;2022-12-07T07:57:24;11.30;;;9.03;;
6517;SDS011;3292;48.944;9.240;2022-12-07T07:59:53;11.47;;;9.10;;
6517;SDS011;3292;48.944;9.240;2022-12-07T08:02:23;11.33;;;9.10;;
6517;SDS011;3292;48.944;9.240;2022-12-07T08:04:57;10.23;;;8.37;;
6517;SDS011;3292;48.944;9.240;2022-12-07T08:07:27;10.00;;;9.00;;
6517;SDS011;3292;48.944;9.240;2022-12-07T08:09:56;10.70;;;9.07;;
6517;SDS011;3292;48.944;9.240;2022-12-07T08:12:26;11.03;;;9.17;;
6517;SDS011;3292;48.944;9.240;2022-12-07T08:14:56;9.67;;;8.27;;
6517;SDS011;3292;48.944;9.240;2022-12-07T08:17:24;9.33;;;8.33;;
6517;SDS011;3292;48.944;9.240;2022-12-07T08:19:52;10.40;;;9.30;;
6517;SDS011;3292;48.944;9.240;2022-12-07T08:22:22;10.40;;;8.50;;
6517;SDS011;3292;48.944;9.240;2022-12-07T08:24:51;10.43;;;8.83;;
6517;SDS011;3292;48.944;9.240;2022-12-07T08:27:19;10.20;;;8.17;;
6517;SDS011;3292;48.944;9.240;2022-12-07T08:29:52;11.47;;;8.43;;
6517;SDS011;3292;48.944;9.240;2022-12-07T08:32:20;11.80;;;8.97;;
6517;SDS011;3292;48.944;9.240;2022-12-07T08:34:52;11.37;;;8.77;;
6517;SDS011;3292;48.944;9.240;2022-12-07T08:37:23;9.50;;;8.50;;
6517;SDS011;3292;48.944;9.240;2022-12-07T08:39:51;9.73;;;8.00;;
6517;SDS011;3292;48.944;9.240;2022-12-07T08:42:21;9.50;;;8.33;;
6517;SDS011;3292;48.944;9.240;2022-12-07T08:44:55;9.50;;;7.13;;
6517;SDS011;3292;48.944;9.240;2022-12-07T08:47:26;10.73;;;8.13;;
6517;SDS011;3292;48.944;9.240;2022-12-07T08:49:54;12.53;;;8.33;;
6517;SDS011;3292;48.944;9.240;2022-12-07T08:52:24;8.87;;;7.80;;
6517;SDS011;3292;48.944;9.240;2022-12-07T08:54:53;9.03;;;7.50;;
6517;SDS011;3292;48.944;9.240;2022-12-07T08:57:22;9.70;;;7.33;;
6517;SDS011;3292;48.944;9.240;2022-12-07T08:59:50;10.30;;;7.93;;
6517;SDS011;3292;48.944;9.240;2022-12-07T09:02:19;9.03;;;7.20;;
6517;SDS011;3292;48.944;9.240;2022-12-07T09:04:54;9.27;;;8.27;;
6517;SDS011;3292;48.944;9.240;2022-12-07T09:07:25;9.83;;;7.90;;
6517;SDS011;3292;48.944;9.240;2022-12-07T09:09:55;10.73;;;8.13;;
6517;SDS011;3292;48.944;9.240;2022-12-07T09:12:25;10.97;;;7.13;;
6517;SDS011;3292;48.944;9.240;2022-12-07T09:14:53;8.77;;;7.50;;
6517;SDS011;3292;48.944;9.240;2022-12-07T09:17:22;10.20;;;7.43;;
6517;SDS011;3292;48.944;9.240;2022-12-07T09:19:50;10.77;;;7.17;;
6517;SDS011;3292;48.944;9.240;2022-12-07T09:22:21;9.57;;;7.37;;
6517;SDS011;3292;48.944;9.240;2022-12-07T09:24:51;8.30;;;6.60;;
6517;SDS011;3292;48.944;9.240;2022-12-07T09:27:21;7.73;;;6.63;;
6517;SDS011;3292;48.944;9.240;2022-12-07T09:29:51;6.73;;;6.03;;
6517;SDS011;3292;48.944;9.240;2022-12-07T09:32:21;10.73;;;6.47;;
6517;SDS011;3292;48.944;9.240;2022-12-07T09:34:50;8.80;;;6.30;;
6517;SDS011;3292;48.944;9.240;2022-12-07T09:37:18;8.30;;;6.23;;
6517;SDS011;3292;48.944;9.240;2022-12-07T09:39:47;6.83;;;5.40;;
6517;SDS011;3292;48.944;9.240;2022-12-07T09:42:26;8.07;;;6.70;;
6517;SDS011;3292;48.944;9.240;2022-12-07T09:44:57;7.57;;;6.17;;
6517;SDS011;3292;48.944;9.240;2022-12-07T09:47:33;10.33;;;6.63;;
6517;SDS011;3292;48.944;9.240;2022-12-07T09:50:12;6.90;;;6.20;;
6517;SDS011;3292;48.944;9.240;2022-12-07T09:52:42;7.20;;;6.23;;
6517;SDS011;3292;48.944;9.240;2022-12-07T09:55:16;8.40;;;5.73;;
6517;SDS011;3292;48.944;9.240;2022-12-07T09:57:53;7.10;;;5.63;;
6517;SDS011;3292;48.944;9.240;2022-12-07T10:00:23;7.27;;;5.77;;
6517;SDS011;3292;48.944;9.240;2022-12-07T10:02:54;8.73;;;6.70;;
6517;SDS011;3292;48.944;9.240;2022-12-07T10:05:25;7.47;;;6.33;;
6517;SDS011;3292;48.944;9.240;2022-12-07T10:07:57;7.57;;;6.60;;
6517;SDS011;3292;48.944;9.240;2022-12-07T10:10:28;8.40;;;6.10;;
6517;SDS011;3292;48.944;9.240;2022-12-07T10:13:01;7.77;;;6.20;;
6517;SDS011;3292;48.944;9.240;2022-12-07T10:18:27;9.37;;;5.80;;
6517;SDS011;3292;48.944;9.240;2022-12-07T10:21:01;8.87;;;6.80;;
6517;SDS011;3292;48.944;9.240;2022-12-07T10:23:38;8.47;;;6.47;;
6517;SDS011;3292;48.944;9.240;2022-12-07T10:26:19;6.50;;;5.50;;
6517;SDS011;3292;48.944;9.240;2022-12-07T10:28:56;7.10;;;5.40;;
6517;SDS011;3292;48.944;9.240;2022-12-07T10:31:29;7.87;;;5.30;;
6517;SDS011;3292;48.944;9.240;2022-12-07T10:34:13;6.87;;;5.20;;
6517;SDS011;3292;48.944;9.240;2022-12-07T10:36:52;9.07;;;5.53;;
6517;SDS011;3292;48.944;9.240;2022-12-07T10:39:40;8.20;;;5.90;;
6517;SDS011;3292;48.944;9.240;2022-12-07T10:42:18;6.27;;;5.30;;
6517;SDS011;3292;48.944;9.240;2022-12-07T10:44:50;8.83;;;5.50;;
6517;SDS011;3292;48.944;9.240;2022-12-07T10:47:38;7.93;;;6.23;;
6517;SDS011;3292;48.944;9.240;2022-12-07T10:50:17;9.90;;;6.23;;
6517;SDS011;3292;48.944;9.240;2022-12-07T10:53:04;7.50;;;6.13;;
6517;SDS011;3292;48.944;9.240;2022-12-07T10:55:54;8.93;;;6.63;;
6517;SDS011;3292;48.944;9.240;2022-12-07T10:58:38;7.43;;;6.47;;
6517;SDS011;3292;48.944;9.240;2022-12-07T11:01:21;7.40;;;6.20;;
6517;SDS011;3292;48.944;9.240;2022-12-07T11:04:18;8.17;;;6.80;;
6517;SDS011;3292;48.944;9.240;2022-12-07T11:06:59;8.70;;;6.97;;
6517;SDS011;3292;48.944;9.240;2022-12-07T11:12:29;9.93;;;7.30;;
6517;SDS011;3292;48.944;9.240;2022-12-07T11:15:10;8.83;;;6.83;;
6517;SDS011;3292;48.944;9.240;2022-12-07T11:17:48;11.03;;;7.67;;
6517;SDS011;3292;48.944;9.240;2022-12-07T11:20:29;8.20;;;7.17;;
6517;SDS011;3292;48.944;9.240;2022-12-07T11:23:11;8.47;;;7.43;;
6517;SDS011;3292;48.944;9.240;2022-12-07T11:25:49;8.20;;;6.70;;
6517;SDS011;3292;48.944;9.240;2022-12-07T11:28:26;9.47;;;7.33;;
6517;SDS011;3292;48.944;9.240;2022-12-07T11:31:11;10.83;;;7.70;;
6517;SDS011;3292;48.944;9.240;2022-12-07T11:33:45;9.10;;;7.63;;
6517;SDS011;3292;48.944;9.240;2022-12-07T11:36:22;8.80;;;7.70;;
6517;SDS011;3292;48.944;9.240;2022-12-07T11:39:04;8.20;;;7.27;;
6517;SDS011;3292;48.944;9.240;2022-12-07T11:41:37;9.20;;;7.40;;
6517;SDS011;3292;48.944;9.240;2022-12-07T11:44:14;13.30;;;8.30;;
6517;SDS011;3292;48.944;9.240;2022-12-07T11:46:53;8.63;;;7.73;;
6517;SDS011;3292;48.944;9.240;2022-12-07T11:49:39;11.10;;;8.43;;
6517;SDS011;3292;48.944;9.240;2022-12-07T11:52:16;9.57;;;7.37;;
6517;SDS011;3292;48.944;9.240;2022-12-07T11:54:49;10.17;;;8.10;;
6517;SDS011;3292;48.944;9.240;2022-12-07T11:57:22;12.77;;;9.17;;
6517;SDS011;3292;48.944;9.240;2022-12-07T12:00:01;10.47;;;8.63;;
6517;SDS011;3292;48.944;9.240;2022-12-07T12:02:41;9.87;;;8.40;;
6517;SDS011;3292;48.944;9.240;2022-12-07T12:05:18;10.17;;;8.40;;
6517;SDS011;3292;48.944;9.240;2022-12-07T12:07:48;10.10;;;8.67;;
6517;SDS011;3292;48.944;9.240;2022-12-07T12:10:26;11.70;;;8.97;;
6517;SDS011;3292;48.944;9.240;2022-12-07T12:13:17;10.50;;;8.90;;
6517;SDS011;3292;48.944;9.240;2022-12-07T12:16:06;12.97;;;8.13;;
6517;SDS011;3292;48.944;9.240;2022-12-07T12:18:52;9.77;;;8.27;;
6517;SDS011;3292;48.944;9.240;2022-12-07T12:21:31;9.67;;;8.03;;
6517;SDS011;3292;48.944;9.240;2022-12-07T12:24:02;10.57;;;8.27;;
6517;SDS011;3292;48.944;9.240;2022-12-07T12:26:36;9.87;;;8.33;;
6517;SDS011;3292;48.944;9.240;2022-12-07T12:29:06;14.07;;;8.73;;
6517;SDS011;3292;48.944;9.240;2022-12-07T12:32:10;11.63;;;9.20;;
6517;SDS011;3292;48.944;9.240;2022-12-07T12:34:59;11.43;;;8.87;;
6517;SDS011;3292;48.944;9.240;2022-12-07T12:37:41;10.43;;;8.67;;
6517;SDS011;3292;48.944;9.240;2022-12-07T12:46:37;13.10;;;8.40;;
6517;SDS011;3292;48.944;9.240;2022-12-07T12:49:32;12.70;;;9.43;;
6517;SDS011;3292;48.944;9.240;2022-12-07T12:55:18;12.47;;;9.40;;
6517;SDS011;3292;48.944;9.240;2022-12-07T13:03:54;13.57;;;9.07;;
6517;SDS011;3292;48.944;9.240;2022-12-07T13:06:33;11.70;;;9.17;;
6517;SDS011;3292;48.944;9.240;2022-12-07T13:09:04;11.30;;;9.10;;
6517;SDS011;3292;48.944;9.240;2022-12-07T13:11:47;9.10;;;8.13;;
6517;SDS011;3292;48.944;9.240;2022-12-07T13:17:07;11.87;;;9.10;;
6517;SDS011;3292;48.944;9.240;2022-12-07T13:22:40;13.87;;;10.63;;
6517;SDS011;3292;48.944;9.240;2022-12-07T13:25:18;13.53;;;10.63;;
6517;SDS011;3292;48.944;9.240;2022-12-07T13:27:50;13.43;;;10.97;;
6517;SDS011;3292;48.944;9.240;2022-12-07T13:30:22;11.27;;;9.37;;
6517;SDS011;3292;48.944;9.240;2022-12-07T13:32:52;11.77;;;9.70;;
6517;SDS011;3292;48.944;9.240;2022-12-07T13:38:16;14.57;;;10.27;;
6517;SDS011;3292;48.944;9.240;2022-12-07T13:40:59;14.67;;;10.83;;
6517;SDS011;3292;48.944;9.240;2022-12-07T13:43:28;12.60;;;9.97;;
6517;SDS011;3292;48.944;9.240;2022-12-07T13:45:56;16.33;;;10.30;;
6517;SDS011;3292;48.944;9.240;2022-12-07T13:48:25;15.93;;;10.47;;
6517;SDS011;3292;48.944;9.240;2022-12-07T13:50:57;14.33;;;9.90;;
6517;SDS011;3292;48.944;9.240;2022-12-07T13:53:26;15.37;;;10.90;;
6517;SDS011;3292;48.944;9.240;2022-12-07T13:55:55;13.20;;;10.30;;
6517;SDS011;3292;48.944;9.240;2022-12-07T13:58:23;13.33;;;10.53;;
6517;SDS011;3292;48.944;9.240;2022-12-07T14:00:51;15.83;;;11.53;;
6517;SDS011;3292;48.944;9.240;2022-12-07T14:03:25;14.47;;;10.27;;
6517;SDS011;3292;48.944;9.240;2022-12-07T14:09:06;14.03;;;10.60;;
6517;SDS011;3292;48.944;9.240;2022-12-07T14:11:34;17.57;;;10.57;;
6517;SDS011;3292;48.944;9.240;2022-12-07T14:14:01;14.70;;;10.33;;
6517;SDS011;3292;48.944;9.240;2022-12-07T14:16:31;13.80;;;10.60;;
6517;SDS011;3292;48.944;9.240;2022-12-07T14:19:01;15.37;;;11.07;;
6517;SDS011;3292;48.944;9.240;2022-12-07T14:21:30;14.93;;;10.33;;
6517;SDS011;3292;48.944;9.240;2022-12-07T14:24:11;14.23;;;11.03;;
6517;SDS011;3292;48.944;9.240;2022-12-07T14:26:42;12.97;;;10.77;;
6517;SDS011;3292;48.944;9.240;2022-12-07T14:29:20;12.10;;;10.00;;
6517;SDS011;3292;48.944;9.240;2022-12-07T14:31:52;13.23;;;10.77;;
6517;SDS011;3292;48.944;9.240;2022-12-07T14:34:20;13.93;;;10.33;;
6517;SDS011;3292;48.944;9.240;2022-12-07T14:36:47;15.03;;;10.77;;
6517;SDS011;3292;48.944;9.240;2022-12-07T14:39:14;12.67;;;10.67;;
6517;SDS011;3292;48.944;9.240;2022-12-07T14:41:41;15.20;;;10.53;;
6517;SDS011;3292;48.944;9.240;2022-12-07T14:44:17;15.13;;;11.23;;
6517;SDS011;3292;48.944;9.240;2022-12-07T14:46:47;13.47;;;11.07;;
6517;SDS011;3292;48.944;9.240;2022-12-07T14:49:18;13.37;;;10.20;;
6517;SDS011;3292;48.944;9.240;2022-12-07T14:51:47;14.90;;;10.47;;
6517;SDS011;3292;48.944;9.240;2022-12-07T14:54:17;15.27;;;10.83;;
6517;SDS011;3292;48.944;9.240;2022-12-07T14:56:49;14.40;;;11.30;;
6517;SDS011;3292;48.944;9.240;2022-12-07T14:59:26;13.83;;;10.50;;
6517;SDS011;3292;48.944;9.240;2022-12-07T15:02:00;13.03;;;10.53;;
6517;SDS011;3292;48.944;9.240;2022-12-07T15:04:34;18.47;;;11.03;;
6517;SDS011;3292;48.944;9.240;2022-12-07T15:07:06;13.47;;;10.53;;
6517;SDS011;3292;48.944;9.240;2022-12-07T15:09:47;13.47;;;10.47;;
6517;SDS011;3292;48.944;9.240;2022-12-07T15:12:17;15.23;;;10.37;;
6517;SDS011;3292;48.944;9.240;2022-12-07T15:14:49;14.57;;;10.73;;
6517;SDS011;3292;48.944;9.240;2022-12-07T15:17:20;15.60;;;12.27;;
6517;SDS011;3292;48.944;9.240;2022-12-07T15:19:53;15.67;;;11.63;;
6517;SDS011;3292;48.944;9.240;2022-12-07T15:22:24;20.20;;;12.43;;
6517;SDS011;3292;48.944;9.240;2022-12-07T15:24:55;17.40;;;12.87;;
6517;SDS011;3292;48.944;9.240;2022-12-07T15:27:29;18.77;;;13.40;;
6517;SDS011;3292;48.944;9.240;2022-12-07T15:30:00;16.40;;;13.20;;
6517;SDS011;3292;48.944;9.240;2022-12-07T15:32:32;17.67;;;13.30;;
6517;SDS011;3292;48.944;9.240;2022-12-07T15:35:06;17.70;;;13.50;;
6517;SDS011;3292;48.944;9.240;2022-12-07T15:37:36;18.27;;;14.33;;
6517;SDS011;3292;48.944;9.240;2022-12-07T15:40:06;19.83;;;13.70;;
6517;SDS011;3292;48.944;9.240;2022-12-07T15:42:36;21.40;;;15.57;;
6517;SDS011;3292;48.944;9.240;2022-12-07T15:45:06;23.43;;;16.10;;
6517;SDS011;3292;48.944;9.240;2022-12-07T15:47:35;21.37;;;14.83;;
6517;SDS011;3292;48.944;9.240;2022-12-07T15:50:09;21.20;;;14.90;;
6517;SDS011;3292;48.944;9.240;2022-12-07T15:52:40;24.57;;;16.50;;
6517;SDS011;3292;48.944;9.240;2022-12-07T15:55:10;23.90;;;16.03;;
6517;SDS011;3292;48.944;9.240;2022-12-07T15:57:39;22.97;;;16.47;;
6517;SDS011;3292;48.944;9.240;2022-12-07T16:00:09;22.70;;;16.47;;